createdAt,value
2022-08-26T00:01:57.463Z,101133.19
2022-08-26T00:04:26.662Z,101133.59
2022-08-26T00:06:55.805Z,101130.59
2022-08-26T00:09:24.901Z,101129.31
2022-08-26T00:11:53.409Z,101136.69
2022-08-26T00:14:29.560Z,101129.84
2022-08-26T00:16:59.286Z,101134.53
2022-08-26T00:19:27.953Z,101124.06
2022-08-26T00:21:55.962Z,101129.38
2022-08-26T00:24:23.706Z,101134.72
2022-08-26T00:26:52.223Z,101134.06
2022-08-26T00:29:21.251Z,101126.25
2022-08-26T00:31:51.041Z,101127.25
2022-08-26T00:34:19.359Z,101127.25
2022-08-26T00:36:51.892Z,101122.94
2022-08-26T00:39:19.942Z,101117.78
2022-08-26T00:41:48.123Z,101130.28
2022-08-26T00:44:15.679Z,101121.63
2022-08-26T00:46:46.765Z,101117.31
2022-08-26T00:49:19.195Z,101115.00
2022-08-26T00:51:50.301Z,101111.69
2022-08-26T00:54:20.239Z,101112.88
2022-08-26T00:56:53.862Z,101111.22
2022-08-26T00:59:22.139Z,101115.72
2022-08-26T01:01:50.591Z,101115.72
2022-08-26T01:04:22.964Z,101109.75
2022-08-26T01:06:54.530Z,101114.19
2022-08-26T01:09:23.555Z,101111.53
2022-08-26T01:11:54.149Z,101101.91
2022-08-26T01:14:23.678Z,101105.75
2022-08-26T01:16:51.342Z,101110.25
2022-08-26T01:19:26.305Z,101112.09
2022-08-26T01:21:59.111Z,101105.28
2022-08-26T01:24:29.878Z,101107.13
2022-08-26T01:26:59.530Z,101115.28
2022-08-26T01:29:27.215Z,101108.28
2022-08-26T01:31:57.174Z,101107.66
2022-08-26T01:34:27.374Z,101109.66
2022-08-26T01:37:05.795Z,101100.00
2022-08-26T01:39:37.210Z,101110.66
2022-08-26T01:42:10.383Z,101103.66
2022-08-26T01:44:45.017Z,101105.69
2022-08-26T01:47:14.353Z,101094.22
2022-08-26T01:49:44.065Z,101096.03
2022-08-26T01:52:15.261Z,101106.03
2022-08-26T01:54:46.198Z,101093.75
2022-08-26T01:57:20.012Z,101093.06
2022-08-26T01:59:48.908Z,101095.72
2022-08-26T02:02:16.861Z,101083.59
2022-08-26T02:04:50.100Z,101097.09
2022-08-26T02:07:20.267Z,101101.59
2022-08-26T02:09:50.486Z,101097.28
2022-08-26T02:12:20.587Z,101098.94
2022-08-26T02:14:53.213Z,101092.75
2022-08-26T02:17:24.596Z,101096.28
2022-08-26T02:19:52.394Z,101094.44
2022-08-26T02:22:24.519Z,101091.78
2022-08-26T02:24:56.237Z,101084.94
2022-08-26T02:27:28.151Z,101090.28
2022-08-26T02:30:04.327Z,101085.81
2022-08-26T02:32:32.948Z,101081.66
2022-08-26T02:35:02.533Z,101078.97
2022-08-26T02:37:32.838Z,101086.97
2022-08-26T02:40:03.875Z,101089.81
2022-08-26T02:42:32.296Z,101083.66
2022-08-26T02:45:00.193Z,101087.31
2022-08-26T02:47:29.112Z,101092.66
2022-08-26T02:49:56.953Z,101087.31
2022-08-26T02:52:25.399Z,101084.84
2022-08-26T02:54:53.495Z,101078.88
2022-08-26T02:57:22.892Z,101077.19
2022-08-26T02:59:52.018Z,101077.38
2022-08-26T03:02:19.769Z,101064.59
2022-08-26T03:04:57.888Z,101068.25
2022-08-26T03:07:30.318Z,101061.28
2022-08-26T03:09:57.903Z,101072.09
2022-08-26T03:12:27.154Z,101071.44
2022-08-26T03:14:54.713Z,101070.63
2022-08-26T03:17:22.425Z,101071.63
2022-08-26T03:19:54.659Z,101065.47
2022-08-26T03:22:25.408Z,101062.00
2022-08-26T03:24:54.430Z,101059.50
2022-08-26T03:27:22.046Z,101057.84
2022-08-26T03:30:08.357Z,101057.00
2022-08-26T03:32:39.586Z,101058.19
2022-08-26T03:35:09.524Z,101052.84
2022-08-26T03:37:37.307Z,101051.22
2022-08-26T03:40:08.049Z,101051.22
2022-08-26T03:42:36.443Z,101051.22
2022-08-26T03:45:06.929Z,101057.72
2022-08-26T03:47:34.864Z,101056.03
2022-08-26T03:50:06.867Z,101051.09
2022-08-26T03:52:34.399Z,101044.91
2022-08-26T03:55:01.989Z,101052.25
2022-08-26T03:57:31.240Z,101047.09
2022-08-26T03:59:59.258Z,101053.63
2022-08-26T04:02:28.582Z,101056.59
2022-08-26T04:04:56.360Z,101048.78
2022-08-26T04:07:25.952Z,101047.13
2022-08-26T04:09:55.946Z,101039.31
2022-08-26T04:12:23.805Z,101045.66
2022-08-26T04:14:52.504Z,101049.13
2022-08-26T04:17:24.857Z,101043.97
2022-08-26T04:19:54.955Z,101055.63
2022-08-26T04:22:24.803Z,101051.31
2022-08-26T04:24:52.697Z,101053.81
2022-08-26T04:27:20.259Z,101046.81
2022-08-26T04:29:49.179Z,101049.31
2022-08-26T04:32:18.355Z,101050.13
2022-08-26T04:34:45.962Z,101045.44
2022-08-26T04:37:15.554Z,101042.78
2022-08-26T04:39:43.378Z,101044.47
2022-08-26T04:42:13.647Z,101046.78
2022-08-26T04:44:41.550Z,101048.31
2022-08-26T04:47:09.055Z,101047.09
2022-08-26T04:49:37.241Z,101047.75
2022-08-26T04:52:05.617Z,101042.44
2022-08-26T04:54:34.567Z,101044.91
2022-08-26T04:57:02.463Z,101043.59
2022-08-26T04:59:30.069Z,101040.91
2022-08-26T05:01:59.692Z,101036.25
2022-08-26T05:04:30.352Z,101037.06
2022-08-26T05:07:02.472Z,101028.09
2022-08-26T05:09:33.486Z,101040.19
2022-08-26T05:12:06.237Z,101043.53
2022-08-26T05:14:34.615Z,101044.34
2022-08-26T05:17:03.032Z,101047.38
2022-08-26T05:19:31.638Z,101050.31
2022-08-26T05:22:01.088Z,101054.31
2022-08-26T05:24:33.248Z,101060.09
2022-08-26T05:27:03.209Z,101065.53
2022-08-26T05:29:42.676Z,101060.69
2022-08-26T05:32:13.011Z,101067.16
2022-08-26T05:34:43.026Z,101064.97
2022-08-26T05:37:17.166Z,101064.44
2022-08-26T05:39:50.957Z,101058.56
2022-08-26T05:42:28.240Z,101057.22
2022-08-26T05:44:56.685Z,101061.66
2022-08-26T05:47:24.636Z,101064.59
2022-08-26T05:49:53.623Z,101065.75
2022-08-26T05:52:21.268Z,101067.69
2022-08-26T05:54:52.901Z,101072.13
2022-08-26T05:57:24.670Z,101070.22
2022-08-26T05:59:55.607Z,101067.66
2022-08-26T06:02:29.349Z,101069.03
2022-08-26T06:04:59.226Z,101067.31
2022-08-26T06:07:48.193Z,101069.53
2022-08-26T06:10:31.727Z,101060.25
2022-08-26T06:13:09.101Z,101060.88
2022-08-26T06:15:42.018Z,101072.13
2022-08-26T06:18:10.377Z,101066.09
2022-08-26T06:20:43.761Z,101061.78
2022-08-26T06:23:42.554Z,101059.34
2022-08-26T06:26:12.185Z,101058.91
2022-08-26T06:28:41.159Z,101059.09
2022-08-26T06:31:15.962Z,101059.97
2022-08-26T06:33:44.558Z,101059.22
2022-08-26T06:36:20.717Z,101056.56
2022-08-26T06:38:49.092Z,101062.75
2022-08-26T06:41:18.015Z,101056.19
2022-08-26T06:43:48.398Z,101059.06
2022-08-26T06:46:18.913Z,101061.56
2022-08-26T06:48:47.685Z,101057.03
2022-08-26T06:51:18.911Z,101057.63
2022-08-26T06:53:48.447Z,101058.66
2022-08-26T06:56:21.025Z,101054.72
2022-08-26T06:58:52.735Z,101051.44
2022-08-26T07:01:22.534Z,101064.47
2022-08-26T07:03:54.242Z,101059.47
2022-08-26T07:06:25.673Z,101060.84
2022-08-26T07:08:55.652Z,101056.53
2022-08-26T07:11:23.422Z,101057.94
2022-08-26T07:13:53.582Z,101056.63
2022-08-26T07:16:21.915Z,101048.88
2022-08-26T07:18:52.959Z,101059.22
2022-08-26T07:21:21.106Z,101052.75
2022-08-26T07:23:49.730Z,101051.19
2022-08-26T07:26:20.535Z,101049.94
2022-08-26T07:28:50.579Z,101052.25
2022-08-26T07:31:25.388Z,101058.75
2022-08-26T07:33:53.718Z,101044.69
2022-08-26T07:36:23.130Z,101050.53
2022-08-26T07:38:51.622Z,101045.63
2022-08-26T07:41:22.841Z,101046.25
2022-08-26T07:43:50.905Z,101046.94
2022-08-26T07:46:27.202Z,101045.50
2022-08-26T07:48:59.399Z,101041.06
2022-08-26T07:51:28.028Z,101048.81
2022-08-26T07:53:56.723Z,101044.63
2022-08-26T07:56:24.373Z,101043.84
2022-08-26T07:58:53.684Z,101046.22
2022-08-26T08:01:23.810Z,101036.53
2022-08-26T08:03:52.300Z,101042.66
2022-08-26T08:06:22.734Z,101039.38
2022-08-26T08:08:55.329Z,101037.59
2022-08-26T08:11:24.321Z,101038.78
2022-08-26T08:13:56.524Z,101032.75
2022-08-26T08:16:24.945Z,101036.22
2022-08-26T08:18:53.756Z,101035.72
2022-08-26T08:21:27.597Z,101028.75
2022-08-26T08:27:51.288Z,101029.66
2022-08-26T08:30:22.850Z,101032.91
2022-08-26T08:32:51.019Z,101022.06
2022-08-26T08:35:21.162Z,101017.44
2022-08-26T08:37:54.386Z,101028.59
2022-08-26T08:40:25.124Z,101019.59
2022-08-26T08:42:58.005Z,101015.19
2022-08-26T08:48:18.997Z,101003.19
2022-08-26T08:50:50.287Z,100999.97
2022-08-26T08:53:23.372Z,100997.25
2022-08-26T08:56:12.452Z,101004.38
2022-08-26T08:58:56.868Z,100994.28
2022-08-26T09:01:45.713Z,100990.16
2022-08-26T09:04:44.463Z,100991.38
2022-08-26T09:07:19.710Z,100989.28
2022-08-26T09:09:54.294Z,100995.78
2022-08-26T09:12:29.367Z,100995.09
2022-08-26T09:15:03.151Z,100988.41
2022-08-26T09:17:44.002Z,100988.78
2022-08-26T09:20:22.106Z,100990.22
2022-08-26T09:22:54.004Z,100986.38
2022-08-26T09:25:23.541Z,100990.16
2022-08-26T09:27:53.591Z,100990.03
2022-08-26T09:30:27.506Z,100985.56
2022-08-26T09:33:01.765Z,100983.31
2022-08-26T09:35:38.264Z,100986.00
2022-08-26T09:38:24.294Z,100988.84
2022-08-26T09:41:05.130Z,100982.00
2022-08-26T09:43:33.799Z,100976.56
2022-08-26T09:46:13.861Z,100974.28
2022-08-26T09:48:53.215Z,100971.38
2022-08-26T09:51:31.807Z,100971.63
2022-08-26T09:54:32.377Z,100961.84
2022-08-26T09:57:15.217Z,100958.31
2022-08-26T09:59:43.314Z,100958.31
2022-08-26T10:02:27.471Z,100951.47
2022-08-26T10:05:09.601Z,100943.94
2022-08-26T10:07:46.032Z,100941.50
2022-08-26T10:10:18.869Z,100938.66
2022-08-26T10:12:57.258Z,100936.25
2022-08-26T10:15:28.377Z,100923.81
2022-08-26T10:18:09.647Z,100925.16
2022-08-26T10:20:47.233Z,100923.84
2022-08-26T10:24:11.562Z,100904.19
2022-08-26T10:26:46.134Z,100899.84
2022-08-26T10:29:20.568Z,100895.84
2022-08-26T10:32:02.399Z,100892.03
2022-08-26T10:34:29.995Z,100886.56
2022-08-26T10:41:20.682Z,100878.41
2022-08-26T10:44:21.297Z,100874.88
2022-08-26T10:46:57.221Z,100865.31
2022-08-26T10:49:25.100Z,100872.59
2022-08-26T10:52:01.279Z,100860.94
2022-08-26T10:54:39.788Z,100860.28
2022-08-26T10:57:16.417Z,100851.38
2022-08-26T10:59:57.221Z,100842.34
2022-08-26T11:02:35.164Z,100841.94
2022-08-26T11:05:05.763Z,100834.44
2022-08-26T11:07:40.413Z,100821.00
2022-08-26T11:10:15.504Z,100826.22
2022-08-26T11:12:53.466Z,100820.31
2022-08-26T11:16:08.206Z,100816.31
2022-08-26T11:18:46.779Z,100814.22
2022-08-26T11:21:50.647Z,100807.44
2022-08-26T11:24:47.888Z,100815.44
2022-08-26T11:27:53.962Z,100820.59
2022-08-26T11:30:43.146Z,100807.44
2022-08-26T11:33:12.706Z,100802.63
2022-08-26T11:35:50.732Z,100795.75
2022-08-26T11:38:24.436Z,100791.59
2022-08-26T11:41:06.650Z,100797.16
2022-08-26T11:43:34.949Z,100788.97
2022-08-26T11:46:05.645Z,100787.50
2022-08-26T11:48:37.078Z,100793.75
2022-08-26T11:51:10.523Z,100805.19
2022-08-26T11:53:40.839Z,100808.94
2022-08-26T11:56:11.364Z,100810.41
2022-08-26T11:58:44.158Z,100800.31
2022-08-26T12:01:22.383Z,100800.78
2022-08-26T12:03:52.786Z,100797.81
2022-08-26T12:08:57.955Z,100779.03
2022-08-26T12:11:30.332Z,100777.25
2022-08-26T12:14:00.739Z,100776.31
2022-08-26T12:16:29.789Z,100777.00
2022-08-26T12:18:58.174Z,100775.00
2022-08-26T12:21:34.633Z,100775.44
2022-08-26T12:24:05.075Z,100779.97
2022-08-26T12:26:35.925Z,100786.38
2022-08-26T12:29:12.886Z,100796.06
2022-08-26T12:31:49.842Z,100820.38
2022-08-26T12:34:18.743Z,100821.00
2022-08-26T12:36:49.653Z,100817.69
2022-08-26T12:39:27.245Z,100823.88
2022-08-26T12:41:57.404Z,100843.25
2022-08-26T12:44:54.039Z,100840.59
2022-08-26T12:47:33.867Z,100829.25
2022-08-26T12:50:19.533Z,100830.66
2022-08-26T12:53:00.493Z,100830.44
2022-08-26T12:55:42.821Z,100846.50
2022-08-26T12:58:27.875Z,100845.69
2022-08-26T13:01:22.467Z,100844.63
2022-08-26T13:03:54.443Z,100849.34
2022-08-26T13:06:39.307Z,100858.16
2022-08-26T13:09:31.554Z,100854.84
2022-08-26T13:12:02.138Z,100851.34
2022-08-26T13:14:31.163Z,100863.06
2022-08-26T13:17:05.384Z,100878.25
2022-08-26T13:19:33.771Z,100865.88
2022-08-26T13:22:02.304Z,100849.78
2022-08-26T13:24:35.537Z,100826.50
2022-08-26T13:27:06.799Z,100815.78
2022-08-26T13:29:35.063Z,100821.91
2022-08-26T13:32:09.696Z,100820.09
2022-08-26T13:34:40.245Z,100817.00
2022-08-26T13:37:20.872Z,100817.00
2022-08-26T13:40:09.166Z,100807.53
2022-08-26T13:42:49.573Z,100786.38
2022-08-26T13:45:19.806Z,100775.28
2022-08-26T13:47:53.855Z,100760.91
2022-08-26T13:50:51.073Z,100757.81
2022-08-26T13:53:39.117Z,100763.81
2022-08-26T13:56:25.333Z,100766.28
2022-08-26T13:59:11.830Z,100788.28
2022-08-26T14:02:07.547Z,100789.97
2022-08-26T14:04:45.518Z,100788.75
2022-08-26T14:07:16.743Z,100783.00
2022-08-26T14:09:44.609Z,100797.41
2022-08-26T14:12:14.524Z,100796.97
2022-08-26T14:14:42.187Z,100792.84
2022-08-26T14:17:15.028Z,100814.22
2022-08-26T14:19:46.918Z,100826.94
2022-08-26T14:22:16.672Z,100844.75
2022-08-26T14:24:44.818Z,100847.13
2022-08-26T14:27:16.279Z,100851.16
2022-08-26T14:29:45.380Z,100851.75
2022-08-26T14:38:19.527Z,100881.16
2022-08-26T14:40:47.200Z,100870.47
2022-08-26T14:43:16.927Z,100863.50
2022-08-26T14:45:45.830Z,100851.38
2022-08-26T14:48:15.364Z,100819.34
2022-08-26T14:50:50.356Z,100801.28
2022-08-26T14:53:36.567Z,100796.63
2022-08-26T14:56:05.365Z,100791.81
2022-08-26T14:58:36.916Z,100797.56
2022-08-26T15:01:07.243Z,100792.03
2022-08-26T15:03:43.808Z,100786.88
2022-08-26T15:06:14.028Z,100788.06
2022-08-26T15:08:43.837Z,100779.84
2022-08-26T15:11:30.472Z,100775.06
2022-08-26T15:14:02.932Z,100780.41
2022-08-26T15:16:32.721Z,100781.66
2022-08-26T15:19:07.378Z,100784.50
2022-08-26T15:21:40.057Z,100781.41
2022-08-26T15:24:08.953Z,100770.50
2022-08-26T15:26:40.473Z,100779.69
2022-08-26T15:29:12.642Z,100780.28
2022-08-26T15:31:43.870Z,100787.47
2022-08-26T15:34:18.822Z,100796.03
2022-08-26T15:37:01.228Z,100781.44
2022-08-26T15:39:37.197Z,100793.31
2022-08-26T15:42:14.178Z,100806.03
2022-08-26T15:44:49.007Z,100796.34
2022-08-26T15:47:21.463Z,100773.69
2022-08-26T15:50:13.708Z,100755.84
2022-08-26T15:53:10.776Z,100746.84
2022-08-26T15:55:48.859Z,100737.81
2022-08-26T15:58:31.810Z,100716.84
2022-08-26T16:01:07.336Z,100715.22
2022-08-26T16:03:44.311Z,100707.59
2022-08-26T16:06:25.790Z,100712.50
2022-08-26T16:12:41.830Z,100727.78
2022-08-26T16:15:22.314Z,100741.94
2022-08-26T16:21:41.580Z,100759.88
2022-08-26T16:25:23.898Z,100754.31
2022-08-26T16:28:11.621Z,100746.50
2022-08-26T16:34:04.607Z,100733.34
2022-08-26T16:36:55.417Z,100723.72
2022-08-26T16:40:11.939Z,100724.28
2022-08-26T16:46:58.779Z,100733.69
2022-08-26T16:53:43.018Z,100740.09
2022-08-26T17:15:35.844Z,100754.38
2022-08-26T17:18:42.360Z,100749.22
2022-08-26T17:21:21.904Z,100750.16
2022-08-26T17:34:16.754Z,100772.72
2022-08-26T17:38:07.275Z,100761.19
2022-08-26T17:41:13.219Z,100754.81
2022-08-26T17:44:02.808Z,100744.66
2022-08-26T17:47:24.945Z,100740.75
2022-08-26T17:49:54.152Z,100737.72
2022-08-26T17:55:56.754Z,100714.88
2022-08-26T17:58:25.457Z,100721.22
2022-08-26T18:01:10.916Z,100716.72
2022-08-26T18:04:08.667Z,100719.56
2022-08-26T18:07:19.338Z,100725.53
2022-08-26T18:09:51.095Z,100722.66
2022-08-26T18:12:19.670Z,100728.00
2022-08-26T18:14:48.366Z,100716.72
2022-08-26T18:17:19.574Z,100716.91
2022-08-26T18:20:04.842Z,100712.59
2022-08-26T18:22:39.631Z,100720.78
2022-08-26T18:25:13.953Z,100713.75
2022-08-26T18:27:59.734Z,100713.94
2022-08-26T18:30:40.088Z,100708.81
2022-08-26T18:33:17.242Z,100709.63
2022-08-26T18:35:49.323Z,100707.81
2022-08-26T18:38:21.013Z,100705.94
2022-08-26T18:41:06.056Z,100710.47
2022-08-26T18:43:34.272Z,100708.81
2022-08-26T18:46:03.573Z,100712.69
2022-08-26T18:48:32.453Z,100709.34
2022-08-26T18:51:00.378Z,100698.88
2022-08-26T18:53:28.598Z,100701.94
2022-08-26T18:55:56.248Z,100700.47
2022-08-26T18:58:24.522Z,100712.97
2022-08-26T19:00:55.478Z,100704.13
2022-08-26T19:03:23.304Z,100710.50
2022-08-26T19:05:52.354Z,100719.50
2022-08-26T19:08:20.161Z,100711.69
2022-08-26T19:10:48.131Z,100713.53
2022-08-26T19:13:16.451Z,100716.19
2022-08-26T19:15:46.546Z,100720.88
2022-08-26T19:18:16.555Z,100723.56
2022-08-26T19:20:46.954Z,100736.19
2022-08-26T19:23:31.358Z,100745.22
2022-08-26T19:25:59.964Z,100741.72
2022-08-26T19:28:27.570Z,100751.53
2022-08-26T19:30:55.197Z,100763.19
2022-08-26T19:33:23.362Z,100767.06
2022-08-26T19:35:51.147Z,100761.94
2022-08-26T19:38:20.408Z,100765.41
2022-08-26T19:40:48.799Z,100769.75
2022-08-26T19:43:16.596Z,100775.06
2022-08-26T19:45:44.527Z,100781.19
2022-08-26T19:48:12.941Z,100775.88
2022-08-26T19:50:40.888Z,100783.88
2022-08-26T19:53:10.211Z,100783.06
2022-08-26T19:55:39.743Z,100776.06
2022-08-26T19:58:08.281Z,100777.72
2022-08-26T20:00:48.074Z,100778.53
2022-08-26T20:04:07.010Z,100773.03
2022-08-26T20:07:19.078Z,100773.84
2022-08-26T20:10:13.160Z,100781.84
2022-08-26T20:13:01.726Z,100791.66
2022-08-26T20:15:30.381Z,100790.66
2022-08-26T20:17:58.968Z,100794.16
2022-08-26T20:20:44.325Z,100795.16
2022-08-26T20:23:13.611Z,100804.16
2022-08-26T20:25:43.101Z,100814.81
2022-08-26T20:28:12.346Z,100829.13
2022-08-26T20:30:42.185Z,100823.00
2022-08-26T20:33:13.124Z,100829.13
2022-08-26T20:35:42.302Z,100818.47
2022-08-26T20:38:10.908Z,100816.84
2022-08-26T20:40:40.809Z,100815.81
2022-08-26T20:43:09.915Z,100812.34
2022-08-26T20:45:40.654Z,100815.00
2022-08-26T20:48:09.366Z,100819.50
2022-08-26T20:50:39.332Z,100819.50
2022-08-26T20:53:08.522Z,100806.38
2022-08-26T20:55:36.908Z,100818.22
2022-08-26T20:58:05.353Z,100818.75
2022-08-26T21:00:33.673Z,100824.44
2022-08-26T21:03:03.571Z,100840.97
2022-08-26T21:09:38.052Z,100842.34
2022-08-26T21:12:09.582Z,100833.34
2022-08-26T21:14:37.762Z,100830.88
2022-08-26T21:17:08.480Z,100823.88
2022-08-26T21:19:42.602Z,100818.91
2022-08-26T21:22:12.513Z,100817.47
2022-08-26T21:24:43.554Z,100815.16
2022-08-26T21:27:32.014Z,100813.31
2022-08-26T21:30:13.912Z,100807.19
2022-08-26T21:32:44.043Z,100805.50
2022-08-26T21:35:14.053Z,100803.88
2022-08-26T21:37:42.621Z,100802.22
2022-08-26T21:40:22.469Z,100803.03
2022-08-26T21:42:54.323Z,100803.03
2022-08-26T21:45:22.843Z,100802.38
2022-08-26T21:47:50.980Z,100794.59
2022-08-26T21:50:21.605Z,100799.09
2022-08-26T21:52:52.442Z,100795.63
2022-08-26T21:55:22.480Z,100793.94
2022-08-26T21:57:55.164Z,100794.13
2022-08-26T22:00:23.616Z,100802.94
2022-08-26T22:02:51.265Z,100802.47
2022-08-26T22:05:20.122Z,100784.00
2022-08-26T22:07:47.742Z,100793.84
2022-08-26T22:10:15.219Z,100791.50
2022-08-26T22:12:42.693Z,100789.03
2022-08-26T22:15:10.912Z,100781.03
2022-08-26T22:17:38.431Z,100764.44
2022-08-26T22:20:07.287Z,100761.16
2022-08-26T22:22:45.630Z,100751.50
2022-08-26T22:25:13.352Z,100753.53
2022-08-26T22:27:42.785Z,100762.84
2022-08-26T22:30:11.586Z,100756.91
2022-08-26T22:32:40.412Z,100742.97
2022-08-26T22:35:28.397Z,100743.50
2022-08-26T22:37:58.313Z,100731.38
2022-08-26T22:40:26.103Z,100734.19
2022-08-26T22:42:55.622Z,100726.22
2022-08-26T22:45:26.346Z,100720.25
2022-08-26T22:47:53.999Z,100712.47
2022-08-26T22:50:21.705Z,100704.50
2022-08-26T22:52:49.213Z,100701.19
2022-08-26T22:55:18.489Z,100705.88
2022-08-26T22:57:46.074Z,100718.53
2022-08-26T23:00:14.647Z,100732.00
2022-08-26T23:02:42.496Z,100741.78
2022-08-26T23:05:11.342Z,100732.34
2022-08-26T23:07:39.018Z,100739.66
2022-08-26T23:10:09.369Z,100737.84
2022-08-26T23:12:38.746Z,100736.19
2022-08-26T23:15:09.272Z,100730.06
2022-08-26T23:17:37.382Z,100725.56
2022-08-26T23:20:09.879Z,100722.06
2022-08-26T23:22:38.224Z,100723.91
2022-08-26T23:25:08.204Z,100716.94
2022-08-26T23:27:42.793Z,100721.25
2022-08-26T23:30:14.815Z,100732.88
2022-08-26T23:32:42.437Z,100738.22
2022-08-26T23:35:10.975Z,100740.06
2022-08-26T23:37:44.460Z,100749.84
2022-08-26T23:40:16.719Z,100746.34
2022-08-26T23:42:45.929Z,100745.38
2022-08-26T23:45:18.331Z,100741.84
2022-08-26T23:47:46.668Z,100749.84
2022-08-26T23:50:15.084Z,100750.69
2022-08-26T23:53:00.044Z,100740.22
2022-08-26T23:55:27.910Z,100750.19
2022-08-26T23:57:57.041Z,100753.22
